sensor_id;sensor_type;location;lat;lon;timestamp;P1;durP1;ratioP1;P2;durP2;ratioP2
15931;SDS011;8065;49.520;11.284;2024-01-11T00:02:27;36.97;;;19.93;;
15931;SDS011;8065;49.520;11.284;2024-01-11T00:04:56;37.67;;;20.53;;
15931;SDS011;8065;49.520;11.284;2024-01-11T00:07:26;35.37;;;20.40;;
15931;SDS011;8065;49.520;11.284;2024-01-11T00:09:55;41.17;;;21.13;;
15931;SDS011;8065;49.520;11.284;2024-01-11T00:12:23;36.77;;;19.77;;
15931;SDS011;8065;49.520;11.284;2024-01-11T00:14:51;40.10;;;20.50;;
15931;SDS011;8065;49.520;11.284;2024-01-11T00:17:20;36.90;;;19.90;;
15931;SDS011;8065;49.520;11.284;2024-01-11T00:19:48;40.43;;;21.10;;
15931;SDS011;8065;49.520;11.284;2024-01-11T00:22:17;38.13;;;20.57;;
15931;SDS011;8065;49.520;11.284;2024-01-11T00:24:48;38.37;;;20.73;;
15931;SDS011;8065;49.520;11.284;2024-01-11T00:27:16;37.50;;;20.50;;
15931;SDS011;8065;49.520;11.284;2024-01-11T00:29:44;36.80;;;20.23;;
15931;SDS011;8065;49.520;11.284;2024-01-11T00:32:13;38.87;;;20.33;;
15931;SDS011;8065;49.520;11.284;2024-01-11T00:34:41;32.40;;;19.00;;
15931;SDS011;8065;49.520;11.284;2024-01-11T00:37:09;36.40;;;20.13;;
15931;SDS011;8065;49.520;11.284;2024-01-11T00:39:38;34.77;;;19.07;;
15931;SDS011;8065;49.520;11.284;2024-01-11T00:42:09;37.10;;;19.27;;
15931;SDS011;8065;49.520;11.284;2024-01-11T00:44:37;34.63;;;18.13;;
15931;SDS011;8065;49.520;11.284;2024-01-11T00:47:05;35.23;;;19.83;;
15931;SDS011;8065;49.520;11.284;2024-01-11T00:49:35;36.13;;;18.97;;
15931;SDS011;8065;49.520;11.284;2024-01-11T00:52:04;40.33;;;19.73;;
15931;SDS011;8065;49.520;11.284;2024-01-11T00:54:32;34.07;;;18.70;;
15931;SDS011;8065;49.520;11.284;2024-01-11T00:57:01;37.03;;;20.23;;
15931;SDS011;8065;49.520;11.284;2024-01-11T00:59:32;39.60;;;19.90;;
15931;SDS011;8065;49.520;11.284;2024-01-11T01:02:00;37.27;;;20.93;;
15931;SDS011;8065;49.520;11.284;2024-01-11T01:04:28;40.27;;;21.27;;
15931;SDS011;8065;49.520;11.284;2024-01-11T01:06:57;33.33;;;18.97;;
15931;SDS011;8065;49.520;11.284;2024-01-11T01:09:25;38.87;;;19.77;;
15931;SDS011;8065;49.520;11.284;2024-01-11T01:11:54;35.50;;;19.80;;
15931;SDS011;8065;49.520;11.284;2024-01-11T01:14:22;37.73;;;20.37;;
15931;SDS011;8065;49.520;11.284;2024-01-11T01:16:53;35.23;;;19.07;;
15931;SDS011;8065;49.520;11.284;2024-01-11T01:19:21;38.57;;;20.20;;
15931;SDS011;8065;49.520;11.284;2024-01-11T01:21:49;32.63;;;18.93;;
15931;SDS011;8065;49.520;11.284;2024-01-11T01:24:18;34.67;;;18.13;;
15931;SDS011;8065;49.520;11.284;2024-01-11T01:26:46;33.73;;;18.50;;
15931;SDS011;8065;49.520;11.284;2024-01-11T01:29:14;35.10;;;18.40;;
15931;SDS011;8065;49.520;11.284;2024-01-11T01:31:42;32.67;;;18.63;;
15931;SDS011;8065;49.520;11.284;2024-01-11T01:34:14;31.23;;;18.37;;
15931;SDS011;8065;49.520;11.284;2024-01-11T01:36:42;34.73;;;18.80;;
15931;SDS011;8065;49.520;11.284;2024-01-11T01:39:10;36.33;;;20.90;;
15931;SDS011;8065;49.520;11.284;2024-01-11T01:41:39;33.37;;;18.80;;
15931;SDS011;8065;49.520;11.284;2024-01-11T01:44:07;33.90;;;18.70;;
15931;SDS011;8065;49.520;11.284;2024-01-11T01:46:35;33.50;;;18.33;;
15931;SDS011;8065;49.520;11.284;2024-01-11T01:49:04;33.27;;;18.23;;
15931;SDS011;8065;49.520;11.284;2024-01-11T01:51:36;38.57;;;20.00;;
15931;SDS011;8065;49.520;11.284;2024-01-11T01:54:04;36.23;;;18.50;;
15931;SDS011;8065;49.520;11.284;2024-01-11T01:56:33;37.30;;;19.47;;
15931;SDS011;8065;49.520;11.284;2024-01-11T01:59:01;34.60;;;19.10;;
15931;SDS011;8065;49.520;11.284;2024-01-11T02:01:31;34.50;;;19.23;;
15931;SDS011;8065;49.520;11.284;2024-01-11T02:04:01;35.47;;;18.77;;
15931;SDS011;8065;49.520;11.284;2024-01-11T02:06:29;34.97;;;18.37;;
15931;SDS011;8065;49.520;11.284;2024-01-11T02:09:03;37.37;;;18.97;;
15931;SDS011;8065;49.520;11.284;2024-01-11T02:11:33;29.90;;;17.20;;
15931;SDS011;8065;49.520;11.284;2024-01-11T02:14:02;34.87;;;18.57;;
15931;SDS011;8065;49.520;11.284;2024-01-11T02:16:31;36.50;;;19.03;;
15931;SDS011;8065;49.520;11.284;2024-01-11T02:19:00;35.70;;;18.77;;
15931;SDS011;8065;49.520;11.284;2024-01-11T02:21:28;31.43;;;17.83;;
15931;SDS011;8065;49.520;11.284;2024-01-11T02:24:05;32.10;;;17.83;;
15931;SDS011;8065;49.520;11.284;2024-01-11T02:26:34;33.17;;;17.63;;
15931;SDS011;8065;49.520;11.284;2024-01-11T02:29:04;36.57;;;19.63;;
15931;SDS011;8065;49.520;11.284;2024-01-11T02:31:32;33.73;;;17.97;;
15931;SDS011;8065;49.520;11.284;2024-01-11T02:34:01;35.77;;;19.17;;
15931;SDS011;8065;49.520;11.284;2024-01-11T02:36:29;30.43;;;18.50;;
15931;SDS011;8065;49.520;11.284;2024-01-11T02:38:57;36.80;;;18.57;;
15931;SDS011;8065;49.520;11.284;2024-01-11T02:41:29;35.67;;;17.67;;
15931;SDS011;8065;49.520;11.284;2024-01-11T02:43:58;33.87;;;18.17;;
15931;SDS011;8065;49.520;11.284;2024-01-11T02:46:28;33.27;;;18.27;;
15931;SDS011;8065;49.520;11.284;2024-01-11T02:48:56;32.60;;;18.50;;
15931;SDS011;8065;49.520;11.284;2024-01-11T02:51:25;30.70;;;17.07;;
15931;SDS011;8065;49.520;11.284;2024-01-11T02:53:53;34.57;;;18.40;;
15931;SDS011;8065;49.520;11.284;2024-01-11T02:56:21;32.20;;;17.90;;
15931;SDS011;8065;49.520;11.284;2024-01-11T02:58:52;33.43;;;17.50;;
15931;SDS011;8065;49.520;11.284;2024-01-11T03:01:21;33.67;;;18.10;;
15931;SDS011;8065;49.520;11.284;2024-01-11T03:03:49;32.00;;;18.17;;
15931;SDS011;8065;49.520;11.284;2024-01-11T03:06:18;33.47;;;17.70;;
15931;SDS011;8065;49.520;11.284;2024-01-11T03:08:46;28.30;;;16.20;;
15931;SDS011;8065;49.520;11.284;2024-01-11T03:11:15;29.63;;;16.73;;
15931;SDS011;8065;49.520;11.284;2024-01-11T03:13:44;36.83;;;19.37;;
15931;SDS011;8065;49.520;11.284;2024-01-11T03:16:15;30.60;;;17.40;;
15931;SDS011;8065;49.520;11.284;2024-01-11T03:18:43;34.87;;;18.73;;
15931;SDS011;8065;49.520;11.284;2024-01-11T03:21:11;31.83;;;17.47;;
15931;SDS011;8065;49.520;11.284;2024-01-11T03:23:40;31.67;;;16.67;;
15931;SDS011;8065;49.520;11.284;2024-01-11T03:26:12;33.20;;;17.90;;
15931;SDS011;8065;49.520;11.284;2024-01-11T03:28:41;33.30;;;17.93;;
15931;SDS011;8065;49.520;11.284;2024-01-11T03:31:09;31.63;;;17.77;;
15931;SDS011;8065;49.520;11.284;2024-01-11T03:33:41;33.57;;;18.00;;
15931;SDS011;8065;49.520;11.284;2024-01-11T03:36:09;31.27;;;17.73;;
15931;SDS011;8065;49.520;11.284;2024-01-11T03:38:38;31.30;;;17.43;;
15931;SDS011;8065;49.520;11.284;2024-01-11T03:41:07;30.63;;;17.20;;
15931;SDS011;8065;49.520;11.284;2024-01-11T03:43:36;32.53;;;17.37;;
15931;SDS011;8065;49.520;11.284;2024-01-11T03:46:04;34.40;;;18.43;;
15931;SDS011;8065;49.520;11.284;2024-01-11T03:48:33;30.67;;;17.47;;
15931;SDS011;8065;49.520;11.284;2024-01-11T03:51:04;32.73;;;17.67;;
15931;SDS011;8065;49.520;11.284;2024-01-11T03:53:34;33.13;;;17.90;;
15931;SDS011;8065;49.520;11.284;2024-01-11T03:56:03;32.27;;;18.70;;
15931;SDS011;8065;49.520;11.284;2024-01-11T03:58:32;30.90;;;17.50;;
15931;SDS011;8065;49.520;11.284;2024-01-11T04:01:00;32.33;;;17.53;;
15931;SDS011;8065;49.520;11.284;2024-01-11T04:03:28;31.73;;;17.80;;
15931;SDS011;8065;49.520;11.284;2024-01-11T04:05:57;32.80;;;18.30;;
15931;SDS011;8065;49.520;11.284;2024-01-11T04:08:28;31.67;;;17.10;;
15931;SDS011;8065;49.520;11.284;2024-01-11T04:10:56;37.30;;;18.77;;
15931;SDS011;8065;49.520;11.284;2024-01-11T04:13:24;33.87;;;17.67;;
15931;SDS011;8065;49.520;11.284;2024-01-11T04:15:52;31.87;;;17.37;;
15931;SDS011;8065;49.520;11.284;2024-01-11T04:18:21;32.27;;;16.80;;
15931;SDS011;8065;49.520;11.284;2024-01-11T04:20:49;32.67;;;17.97;;
15931;SDS011;8065;49.520;11.284;2024-01-11T04:23:17;33.80;;;17.67;;
15931;SDS011;8065;49.520;11.284;2024-01-11T04:25:48;33.13;;;17.90;;
15931;SDS011;8065;49.520;11.284;2024-01-11T04:28:17;31.77;;;17.90;;
15931;SDS011;8065;49.520;11.284;2024-01-11T04:30:45;32.70;;;18.27;;
15931;SDS011;8065;49.520;11.284;2024-01-11T04:33:14;34.37;;;18.63;;
15931;SDS011;8065;49.520;11.284;2024-01-11T04:35:42;34.10;;;19.07;;
15931;SDS011;8065;49.520;11.284;2024-01-11T04:38:11;34.40;;;18.63;;
15931;SDS011;8065;49.520;11.284;2024-01-11T04:40:39;31.73;;;18.40;;
15931;SDS011;8065;49.520;11.284;2024-01-11T04:43:10;36.20;;;18.43;;
15931;SDS011;8065;49.520;11.284;2024-01-11T04:45:38;34.83;;;18.43;;
15931;SDS011;8065;49.520;11.284;2024-01-11T04:48:06;31.70;;;18.50;;
15931;SDS011;8065;49.520;11.284;2024-01-11T04:50:34;34.23;;;18.60;;
15931;SDS011;8065;49.520;11.284;2024-01-11T04:53:03;32.60;;;18.27;;
15931;SDS011;8065;49.520;11.284;2024-01-11T04:55:32;36.33;;;18.57;;
15931;SDS011;8065;49.520;11.284;2024-01-11T04:58:00;38.77;;;19.50;;
15931;SDS011;8065;49.520;11.284;2024-01-11T05:00:31;35.87;;;18.23;;
15931;SDS011;8065;49.520;11.284;2024-01-11T05:02:59;31.60;;;17.83;;
15931;SDS011;8065;49.520;11.284;2024-01-11T05:05:27;33.80;;;18.17;;
15931;SDS011;8065;49.520;11.284;2024-01-11T05:07:56;34.87;;;17.80;;
15931;SDS011;8065;49.520;11.284;2024-01-11T05:10:25;34.03;;;18.40;;
15931;SDS011;8065;49.520;11.284;2024-01-11T05:12:53;35.77;;;18.43;;
15931;SDS011;8065;49.520;11.284;2024-01-11T05:15:21;34.03;;;18.50;;
15931;SDS011;8065;49.520;11.284;2024-01-11T05:17:52;32.63;;;19.10;;
15931;SDS011;8065;49.520;11.284;2024-01-11T05:20:22;34.90;;;18.87;;
15931;SDS011;8065;49.520;11.284;2024-01-11T05:22:51;36.03;;;21.00;;
15931;SDS011;8065;49.520;11.284;2024-01-11T05:25:19;52.83;;;26.90;;
15931;SDS011;8065;49.520;11.284;2024-01-11T05:27:47;37.20;;;20.23;;
15931;SDS011;8065;49.520;11.284;2024-01-11T05:30:16;41.30;;;21.33;;
15931;SDS011;8065;49.520;11.284;2024-01-11T05:32:44;48.07;;;26.50;;
15931;SDS011;8065;49.520;11.284;2024-01-11T05:35:15;46.07;;;25.50;;
15931;SDS011;8065;49.520;11.284;2024-01-11T05:37:43;34.83;;;20.20;;
15931;SDS011;8065;49.520;11.284;2024-01-11T05:40:11;41.00;;;20.43;;
15931;SDS011;8065;49.520;11.284;2024-01-11T05:42:40;37.20;;;19.63;;
15931;SDS011;8065;49.520;11.284;2024-01-11T05:45:08;34.37;;;19.23;;
15931;SDS011;8065;49.520;11.284;2024-01-11T05:47:37;36.27;;;19.63;;
15931;SDS011;8065;49.520;11.284;2024-01-11T05:50:06;35.93;;;19.07;;
15931;SDS011;8065;49.520;11.284;2024-01-11T05:52:40;34.30;;;18.23;;
15931;SDS011;8065;49.520;11.284;2024-01-11T05:55:08;32.97;;;18.07;;
15931;SDS011;8065;49.520;11.284;2024-01-11T05:57:37;33.03;;;18.43;;
15931;SDS011;8065;49.520;11.284;2024-01-11T06:00:05;31.70;;;18.10;;
15931;SDS011;8065;49.520;11.284;2024-01-11T06:02:35;31.57;;;18.57;;
15931;SDS011;8065;49.520;11.284;2024-01-11T06:05:05;32.50;;;18.03;;
15931;SDS011;8065;49.520;11.284;2024-01-11T06:07:40;39.63;;;20.27;;
15931;SDS011;8065;49.520;11.284;2024-01-11T06:10:08;36.33;;;19.37;;
15931;SDS011;8065;49.520;11.284;2024-01-11T06:12:36;34.07;;;18.60;;
15931;SDS011;8065;49.520;11.284;2024-01-11T06:15:05;36.53;;;18.73;;
15931;SDS011;8065;49.520;11.284;2024-01-11T06:17:34;37.73;;;19.13;;
15931;SDS011;8065;49.520;11.284;2024-01-11T06:20:03;36.70;;;19.07;;
15931;SDS011;8065;49.520;11.284;2024-01-11T06:22:33;33.67;;;18.50;;
15931;SDS011;8065;49.520;11.284;2024-01-11T06:25:04;34.60;;;18.00;;
15931;SDS011;8065;49.520;11.284;2024-01-11T06:27:33;34.67;;;18.97;;
15931;SDS011;8065;49.520;11.284;2024-01-11T06:30:01;34.93;;;18.30;;
15931;SDS011;8065;49.520;11.284;2024-01-11T06:32:29;33.97;;;19.17;;
15931;SDS011;8065;49.520;11.284;2024-01-11T06:34:57;32.13;;;17.47;;
15931;SDS011;8065;49.520;11.284;2024-01-11T06:37:27;32.97;;;18.90;;
15931;SDS011;8065;49.520;11.284;2024-01-11T06:39:55;34.90;;;19.20;;
15931;SDS011;8065;49.520;11.284;2024-01-11T06:42:26;39.73;;;20.10;;
15931;SDS011;8065;49.520;11.284;2024-01-11T06:44:54;33.23;;;18.50;;
15931;SDS011;8065;49.520;11.284;2024-01-11T06:47:23;33.10;;;19.00;;
15931;SDS011;8065;49.520;11.284;2024-01-11T06:49:51;37.70;;;19.73;;
15931;SDS011;8065;49.520;11.284;2024-01-11T06:52:19;34.50;;;19.23;;
15931;SDS011;8065;49.520;11.284;2024-01-11T06:54:47;36.30;;;19.27;;
15931;SDS011;8065;49.520;11.284;2024-01-11T06:57:16;36.83;;;19.30;;
15931;SDS011;8065;49.520;11.284;2024-01-11T06:59:46;44.73;;;27.00;;
15931;SDS011;8065;49.520;11.284;2024-01-11T07:02:15;50.27;;;28.97;;
15931;SDS011;8065;49.520;11.284;2024-01-11T07:04:44;56.90;;;34.77;;
15931;SDS011;8065;49.520;11.284;2024-01-11T07:07:12;41.37;;;24.13;;
15931;SDS011;8065;49.520;11.284;2024-01-11T07:09:41;38.13;;;22.03;;
15931;SDS011;8065;49.520;11.284;2024-01-11T07:12:09;40.73;;;21.93;;
15931;SDS011;8065;49.520;11.284;2024-01-11T07:14:38;38.67;;;19.70;;
15931;SDS011;8065;49.520;11.284;2024-01-11T07:17:08;34.27;;;19.67;;
15931;SDS011;8065;49.520;11.284;2024-01-11T07:19:37;41.03;;;21.27;;
15931;SDS011;8065;49.520;11.284;2024-01-11T07:22:05;37.27;;;20.63;;
15931;SDS011;8065;49.520;11.284;2024-01-11T07:24:33;37.97;;;19.83;;
15931;SDS011;8065;49.520;11.284;2024-01-11T07:27:02;40.30;;;21.37;;
15931;SDS011;8065;49.520;11.284;2024-01-11T07:29:31;39.23;;;20.90;;
15931;SDS011;8065;49.520;11.284;2024-01-11T07:32:00;34.90;;;18.80;;
15931;SDS011;8065;49.520;11.284;2024-01-11T07:34:31;37.70;;;19.90;;
15931;SDS011;8065;49.520;11.284;2024-01-11T07:37:00;32.60;;;18.93;;
15931;SDS011;8065;49.520;11.284;2024-01-11T07:39:28;35.17;;;18.53;;
15931;SDS011;8065;49.520;11.284;2024-01-11T07:41:57;37.13;;;19.70;;
15931;SDS011;8065;49.520;11.284;2024-01-11T07:44:26;35.23;;;19.83;;
15931;SDS011;8065;49.520;11.284;2024-01-11T07:46:54;38.07;;;20.80;;
15931;SDS011;8065;49.520;11.284;2024-01-11T07:49:22;35.17;;;20.47;;
15931;SDS011;8065;49.520;11.284;2024-01-11T07:51:53;43.03;;;21.43;;
15931;SDS011;8065;49.520;11.284;2024-01-11T07:54:22;37.37;;;20.83;;
15931;SDS011;8065;49.520;11.284;2024-01-11T07:56:50;35.60;;;19.00;;
15931;SDS011;8065;49.520;11.284;2024-01-11T07:59:18;30.63;;;18.23;;
15931;SDS011;8065;49.520;11.284;2024-01-11T08:01:46;34.57;;;19.20;;
15931;SDS011;8065;49.520;11.284;2024-01-11T08:04:15;35.40;;;20.10;;
15931;SDS011;8065;49.520;11.284;2024-01-11T08:06:44;40.80;;;20.17;;
15931;SDS011;8065;49.520;11.284;2024-01-11T08:09:15;34.30;;;19.67;;
15931;SDS011;8065;49.520;11.284;2024-01-11T08:11:43;34.40;;;19.53;;
15931;SDS011;8065;49.520;11.284;2024-01-11T08:14:11;34.70;;;20.47;;
15931;SDS011;8065;49.520;11.284;2024-01-11T08:16:40;36.13;;;20.67;;
15931;SDS011;8065;49.520;11.284;2024-01-11T08:19:09;36.73;;;21.40;;
15931;SDS011;8065;49.520;11.284;2024-01-11T08:21:38;39.50;;;20.83;;
15931;SDS011;8065;49.520;11.284;2024-01-11T08:24:07;35.20;;;21.57;;
15931;SDS011;8065;49.520;11.284;2024-01-11T08:26:38;39.83;;;25.67;;
15931;SDS011;8065;49.520;11.284;2024-01-11T08:29:06;40.50;;;23.40;;
15931;SDS011;8065;49.520;11.284;2024-01-11T08:31:35;39.80;;;24.87;;
15931;SDS011;8065;49.520;11.284;2024-01-11T08:34:03;39.80;;;24.60;;
15931;SDS011;8065;49.520;11.284;2024-01-11T08:36:31;39.10;;;23.83;;
15931;SDS011;8065;49.520;11.284;2024-01-11T08:39:01;36.53;;;21.57;;
15931;SDS011;8065;49.520;11.284;2024-01-11T08:41:30;34.90;;;21.83;;
15931;SDS011;8065;49.520;11.284;2024-01-11T08:44:01;34.60;;;22.13;;
15931;SDS011;8065;49.520;11.284;2024-01-11T08:46:30;34.50;;;21.30;;
15931;SDS011;8065;49.520;11.284;2024-01-11T08:48:59;32.43;;;21.40;;
15931;SDS011;8065;49.520;11.284;2024-01-11T08:51:28;35.73;;;21.30;;
15931;SDS011;8065;49.520;11.284;2024-01-11T08:53:57;33.37;;;21.43;;
15931;SDS011;8065;49.520;11.284;2024-01-11T08:56:25;37.70;;;21.40;;
15931;SDS011;8065;49.520;11.284;2024-01-11T08:58:54;34.97;;;21.53;;
15931;SDS011;8065;49.520;11.284;2024-01-11T09:01:25;36.70;;;22.27;;
15931;SDS011;8065;49.520;11.284;2024-01-11T09:03:54;32.97;;;21.10;;
15931;SDS011;8065;49.520;11.284;2024-01-11T09:06:23;32.90;;;20.70;;
15931;SDS011;8065;49.520;11.284;2024-01-11T09:08:51;35.43;;;21.43;;
15931;SDS011;8065;49.520;11.284;2024-01-11T09:11:19;31.57;;;20.60;;
15931;SDS011;8065;49.520;11.284;2024-01-11T09:13:47;32.07;;;19.93;;
15931;SDS011;8065;49.520;11.284;2024-01-11T09:16:16;31.90;;;18.47;;
15931;SDS011;8065;49.520;11.284;2024-01-11T09:18:47;30.67;;;18.70;;
15931;SDS011;8065;49.520;11.284;2024-01-11T09:21:15;32.73;;;20.00;;
15931;SDS011;8065;49.520;11.284;2024-01-11T09:23:43;36.00;;;24.40;;
15931;SDS011;8065;49.520;11.284;2024-01-11T09:26:12;33.27;;;20.50;;
15931;SDS011;8065;49.520;11.284;2024-01-11T09:28:40;30.47;;;18.63;;
15931;SDS011;8065;49.520;11.284;2024-01-11T09:31:09;29.10;;;19.70;;
15931;SDS011;8065;49.520;11.284;2024-01-11T09:33:37;29.53;;;18.40;;
15931;SDS011;8065;49.520;11.284;2024-01-11T09:36:10;28.57;;;18.77;;
15931;SDS011;8065;49.520;11.284;2024-01-11T09:38:39;27.47;;;17.83;;
15931;SDS011;8065;49.520;11.284;2024-01-11T09:41:08;26.90;;;17.47;;
15931;SDS011;8065;49.520;11.284;2024-01-11T09:43:37;29.00;;;17.07;;
15931;SDS011;8065;49.520;11.284;2024-01-11T09:46:09;26.07;;;17.33;;
15931;SDS011;8065;49.520;11.284;2024-01-11T09:48:39;25.10;;;16.80;;
15931;SDS011;8065;49.520;11.284;2024-01-11T09:51:13;25.93;;;16.20;;
15931;SDS011;8065;49.520;11.284;2024-01-11T09:53:41;33.23;;;20.40;;
15931;SDS011;8065;49.520;11.284;2024-01-11T09:56:11;23.57;;;16.23;;
15931;SDS011;8065;49.520;11.284;2024-01-11T09:58:42;25.87;;;16.67;;
15931;SDS011;8065;49.520;11.284;2024-01-11T10:01:14;25.87;;;15.77;;
15931;SDS011;8065;49.520;11.284;2024-01-11T10:03:43;24.87;;;16.70;;
15931;SDS011;8065;49.520;11.284;2024-01-11T10:06:15;24.97;;;15.70;;
15931;SDS011;8065;49.520;11.284;2024-01-11T10:08:45;22.60;;;15.63;;
15931;SDS011;8065;49.520;11.284;2024-01-11T10:11:14;24.23;;;15.67;;
15931;SDS011;8065;49.520;11.284;2024-01-11T10:13:42;25.60;;;15.53;;
15931;SDS011;8065;49.520;11.284;2024-01-11T10:16:11;25.07;;;15.80;;
15931;SDS011;8065;49.520;11.284;2024-01-11T10:18:40;25.13;;;15.47;;
15931;SDS011;8065;49.520;11.284;2024-01-11T10:21:09;23.97;;;15.23;;
15931;SDS011;8065;49.520;11.284;2024-01-11T10:23:40;23.07;;;15.70;;
15931;SDS011;8065;49.520;11.284;2024-01-11T10:26:09;24.23;;;16.60;;
15931;SDS011;8065;49.520;11.284;2024-01-11T10:28:38;24.30;;;15.97;;
15931;SDS011;8065;49.520;11.284;2024-01-11T10:31:06;23.43;;;15.70;;
15931;SDS011;8065;49.520;11.284;2024-01-11T10:33:34;26.63;;;15.93;;
15931;SDS011;8065;49.520;11.284;2024-01-11T10:36:03;22.33;;;15.47;;
15931;SDS011;8065;49.520;11.284;2024-01-11T10:38:33;21.07;;;14.87;;
15931;SDS011;8065;49.520;11.284;2024-01-11T10:41:06;24.60;;;15.47;;
15931;SDS011;8065;49.520;11.284;2024-01-11T10:43:36;21.43;;;14.80;;
15931;SDS011;8065;49.520;11.284;2024-01-11T10:46:05;25.30;;;15.70;;
15931;SDS011;8065;49.520;11.284;2024-01-11T10:48:37;24.00;;;15.70;;
15931;SDS011;8065;49.520;11.284;2024-01-11T10:51:07;20.87;;;15.13;;
15931;SDS011;8065;49.520;11.284;2024-01-11T10:53:41;22.70;;;15.13;;
15931;SDS011;8065;49.520;11.284;2024-01-11T10:56:14;23.40;;;15.83;;
15931;SDS011;8065;49.520;11.284;2024-01-11T10:58:44;22.03;;;15.17;;
15931;SDS011;8065;49.520;11.284;2024-01-11T11:01:11;23.27;;;15.63;;
15931;SDS011;8065;49.520;11.284;2024-01-11T11:03:40;27.50;;;17.50;;
15931;SDS011;8065;49.520;11.284;2024-01-11T11:06:11;20.87;;;15.37;;
15931;SDS011;8065;49.520;11.284;2024-01-11T11:08:39;25.40;;;16.53;;
15931;SDS011;8065;49.520;11.284;2024-01-11T11:11:09;26.00;;;17.13;;
15931;SDS011;8065;49.520;11.284;2024-01-11T11:13:41;21.90;;;15.77;;
15931;SDS011;8065;49.520;11.284;2024-01-11T11:16:14;25.50;;;15.90;;
15931;SDS011;8065;49.520;11.284;2024-01-11T11:18:43;24.83;;;16.13;;
15931;SDS011;8065;49.520;11.284;2024-01-11T11:21:11;25.03;;;14.67;;
15931;SDS011;8065;49.520;11.284;2024-01-11T11:23:40;21.97;;;15.57;;
15931;SDS011;8065;49.520;11.284;2024-01-11T11:26:08;25.27;;;16.60;;
15931;SDS011;8065;49.520;11.284;2024-01-11T11:28:45;22.33;;;15.30;;
15931;SDS011;8065;49.520;11.284;2024-01-11T11:31:27;21.33;;;15.20;;
15931;SDS011;8065;49.520;11.284;2024-01-11T11:34:03;22.97;;;15.60;;
15931;SDS011;8065;49.520;11.284;2024-01-11T11:36:32;22.20;;;15.40;;
15931;SDS011;8065;49.520;11.284;2024-01-11T11:39:01;23.63;;;16.13;;
15931;SDS011;8065;49.520;11.284;2024-01-11T11:41:30;26.37;;;16.30;;
15931;SDS011;8065;49.520;11.284;2024-01-11T11:44:05;23.63;;;15.43;;
15931;SDS011;8065;49.520;11.284;2024-01-11T11:46:33;22.43;;;14.73;;
15931;SDS011;8065;49.520;11.284;2024-01-11T11:49:02;20.77;;;14.37;;
15931;SDS011;8065;49.520;11.284;2024-01-11T11:51:30;26.43;;;15.30;;
15931;SDS011;8065;49.520;11.284;2024-01-11T11:54:00;24.67;;;15.20;;
15931;SDS011;8065;49.520;11.284;2024-01-11T11:56:30;21.67;;;15.07;;
15931;SDS011;8065;49.520;11.284;2024-01-11T11:58:59;22.40;;;15.23;;
15931;SDS011;8065;49.520;11.284;2024-01-11T12:01:32;24.23;;;15.90;;
15931;SDS011;8065;49.520;11.284;2024-01-11T12:04:03;23.87;;;15.73;;
15931;SDS011;8065;49.520;11.284;2024-01-11T12:06:31;26.67;;;16.53;;
15931;SDS011;8065;49.520;11.284;2024-01-11T12:09:00;21.40;;;15.20;;
15931;SDS011;8065;49.520;11.284;2024-01-11T12:11:28;22.70;;;15.43;;
15931;SDS011;8065;49.520;11.284;2024-01-11T12:13:58;24.87;;;15.33;;
15931;SDS011;8065;49.520;11.284;2024-01-11T12:16:26;24.53;;;15.43;;
15931;SDS011;8065;49.520;11.284;2024-01-11T12:18:57;22.03;;;15.47;;
15931;SDS011;8065;49.520;11.284;2024-01-11T12:21:25;23.13;;;15.13;;
15931;SDS011;8065;49.520;11.284;2024-01-11T12:23:54;24.30;;;15.83;;
15931;SDS011;8065;49.520;11.284;2024-01-11T12:26:22;21.50;;;14.93;;
15931;SDS011;8065;49.520;11.284;2024-01-11T12:28:51;23.53;;;16.23;;
15931;SDS011;8065;49.520;11.284;2024-01-11T12:31:20;27.70;;;14.80;;
15931;SDS011;8065;49.520;11.284;2024-01-11T12:33:49;20.40;;;14.60;;
15931;SDS011;8065;49.520;11.284;2024-01-11T12:36:20;21.17;;;14.83;;
15931;SDS011;8065;49.520;11.284;2024-01-11T12:38:49;21.53;;;14.00;;
15931;SDS011;8065;49.520;11.284;2024-01-11T12:41:18;23.90;;;15.10;;
15931;SDS011;8065;49.520;11.284;2024-01-11T12:43:47;21.33;;;14.50;;
15931;SDS011;8065;49.520;11.284;2024-01-11T12:48:47;20.17;;;14.70;;
15931;SDS011;8065;49.520;11.284;2024-01-11T12:51:16;20.03;;;14.67;;
15931;SDS011;8065;49.520;11.284;2024-01-11T12:53:45;22.00;;;15.17;;
15931;SDS011;8065;49.520;11.284;2024-01-11T12:56:14;20.07;;;14.30;;
15931;SDS011;8065;49.520;11.284;2024-01-11T12:58:43;21.93;;;14.10;;
15931;SDS011;8065;49.520;11.284;2024-01-11T13:01:12;21.70;;;14.73;;
15931;SDS011;8065;49.520;11.284;2024-01-11T13:03:43;23.80;;;14.87;;
15931;SDS011;8065;49.520;11.284;2024-01-11T13:06:15;23.53;;;14.37;;
15931;SDS011;8065;49.520;11.284;2024-01-11T13:08:44;21.23;;;14.63;;
15931;SDS011;8065;49.520;11.284;2024-01-11T13:11:12;22.33;;;14.47;;
15931;SDS011;8065;49.520;11.284;2024-01-11T13:13:41;21.83;;;15.03;;
15931;SDS011;8065;49.520;11.284;2024-01-11T13:16:11;20.17;;;14.53;;
15931;SDS011;8065;49.520;11.284;2024-01-11T13:18:40;21.20;;;14.73;;
15931;SDS011;8065;49.520;11.284;2024-01-11T13:21:11;21.93;;;14.57;;
15931;SDS011;8065;49.520;11.284;2024-01-11T13:23:40;21.77;;;14.23;;
15931;SDS011;8065;49.520;11.284;2024-01-11T13:26:08;21.43;;;14.77;;
15931;SDS011;8065;49.520;11.284;2024-01-11T13:28:37;24.30;;;16.50;;
15931;SDS011;8065;49.520;11.284;2024-01-11T13:31:05;21.63;;;14.87;;
15931;SDS011;8065;49.520;11.284;2024-01-11T13:33:34;20.40;;;14.60;;
15931;SDS011;8065;49.520;11.284;2024-01-11T13:36:04;20.93;;;14.60;;
15931;SDS011;8065;49.520;11.284;2024-01-11T13:38:36;22.20;;;14.83;;
15931;SDS011;8065;49.520;11.284;2024-01-11T13:41:06;20.37;;;14.07;;
15931;SDS011;8065;49.520;11.284;2024-01-11T13:43:34;23.23;;;14.77;;
15931;SDS011;8065;49.520;11.284;2024-01-11T13:46:03;19.63;;;14.33;;
15931;SDS011;8065;49.520;11.284;2024-01-11T13:48:31;21.20;;;14.30;;
15931;SDS011;8065;49.520;11.284;2024-01-11T13:51:00;20.00;;;14.67;;
15931;SDS011;8065;49.520;11.284;2024-01-11T13:53:28;22.50;;;15.60;;
15931;SDS011;8065;49.520;11.284;2024-01-11T13:55:59;21.70;;;15.30;;
15931;SDS011;8065;49.520;11.284;2024-01-11T13:58:29;22.97;;;14.57;;
15931;SDS011;8065;49.520;11.284;2024-01-11T14:00:57;20.23;;;14.90;;
15931;SDS011;8065;49.520;11.284;2024-01-11T14:03:26;22.63;;;14.87;;
15931;SDS011;8065;49.520;11.284;2024-01-11T14:05:54;20.83;;;14.67;;
15931;SDS011;8065;49.520;11.284;2024-01-11T14:08:23;22.10;;;14.90;;
15931;SDS011;8065;49.520;11.284;2024-01-11T14:10:52;20.07;;;14.40;;
15931;SDS011;8065;49.520;11.284;2024-01-11T14:13:24;19.43;;;13.93;;
15931;SDS011;8065;49.520;11.284;2024-01-11T14:15:52;21.30;;;14.53;;
15931;SDS011;8065;49.520;11.284;2024-01-11T14:18:20;19.97;;;14.27;;
15931;SDS011;8065;49.520;11.284;2024-01-11T14:20:50;22.47;;;14.30;;
15931;SDS011;8065;49.520;11.284;2024-01-11T14:23:18;23.90;;;14.47;;
15931;SDS011;8065;49.520;11.284;2024-01-11T14:25:46;21.57;;;14.47;;
15931;SDS011;8065;49.520;11.284;2024-01-11T14:28:15;22.50;;;14.87;;
15931;SDS011;8065;49.520;11.284;2024-01-11T14:30:46;22.73;;;15.70;;
15931;SDS011;8065;49.520;11.284;2024-01-11T14:33:14;21.97;;;14.23;;
15931;SDS011;8065;49.520;11.284;2024-01-11T14:35:44;22.37;;;15.37;;